Time;durP1;ratioP1;P1;durP2;ratioP2;P2;SDS_P1;SDS_P2;PMS_P1;PMS_P2;Temp;Humidity;BMP_temperature;BMP_pressure;BME280_temperature;BME280_humidity;BME280_pressure;Samples;Min_cycle;Max_cycle;Signal;HPM_P1;HPM_P2
2022/04/12 00:01:19;;;;;;;0.30;0.20;;;;;;;6.50;98.08;99971.13;5039831;28;20482;-51
2022/04/12 00:03:45;;;;;;;0.30;0.20;;;;;;;6.62;97.30;99977.97;5048302;28;20501;-51
2022/04/12 00:06:12;;;;;;;0.30;0.20;;;;;;;6.57;98.85;99973.66;5052392;28;20536;-52
2022/04/12 00:08:39;;;;;;;0.30;0.20;;;;;;;6.58;97.93;99981.56;5042485;28;20504;-52
2022/04/12 00:11:05;;;;;;;0.30;0.20;;;;;;;6.68;97.68;99983.13;5042248;28;20526;-51
2022/04/12 00:13:32;;;;;;;1.30;1.30;;;;;;;6.62;98.24;99977.97;5050214;28;20516;-49
2022/04/12 00:15:59;;;;;;;0.30;0.20;;;;;;;6.61;98.40;99975.34;5035149;28;20475;-49
2022/04/12 00:21:11;;;;;;;0.30;0.17;;;;;;;6.60;99.19;99973.63;5041575;28;20478;-51
2022/04/12 00:23:38;;;;;;;0.30;0.20;;;;;;;6.65;99.55;99966.47;5044798;28;20454;-51
2022/04/12 00:26:04;;;;;;;0.30;0.20;;;;;;;6.65;99.62;99972.63;5038220;28;21000;-51
2022/04/12 00:28:31;;;;;;;0.30;0.20;;;;;;;6.63;99.33;99970.91;5046054;28;20520;-51
2022/04/12 00:30:58;;;;;;;0.30;0.17;;;;;;;6.56;99.27;99974.53;5047883;28;20483;-52
2022/04/12 00:33:24;;;;;;;0.30;0.20;;;;;;;6.60;99.99;99976.25;5046681;28;20487;-51
2022/04/12 00:35:52;;;;;;;0.33;0.23;;;;;;;6.57;100.00;99968.38;5040447;28;20479;-52
2022/04/12 00:38:22;;;;;;;0.30;0.30;;;;;;;6.49;99.60;99965.88;5048259;28;20512;-52
2022/04/12 00:40:50;;;;;;;0.30;0.20;;;;;;;6.46;100.00;99969.44;5049904;28;20455;-51
2022/04/12 00:43:18;;;;;;;1.23;1.13;;;;;;;6.66;100.00;99962.94;5037330;28;20525;-51
2022/04/12 00:45:46;;;;;;;0.30;0.20;;;;;;;6.60;99.58;99966.56;5043830;28;20470;-51
2022/04/12 00:48:13;;;;;;;0.30;0.20;;;;;;;6.68;100.00;99963.78;5050211;28;20490;-51
2022/04/12 00:50:41;;;;;;;0.30;0.20;;;;;;;6.56;100.00;99963.97;5039362;28;20488;-51
2022/04/12 00:53:08;;;;;;;0.30;0.20;;;;;;;6.60;100.00;99953.38;5030529;28;20455;-51
2022/04/12 00:55:35;;;;;;;0.33;0.27;;;;;;;6.51;100.00;99953.50;5028562;28;20840;-51
2022/04/12 00:58:07;;;;;;;0.30;0.20;;;;;;;6.36;100.00;99949.38;5051889;28;21020;-52
2022/04/12 01:00:34;;;;;;;0.63;0.60;;;;;;;6.39;100.00;99953.72;5041904;28;20454;-51
2022/04/12 01:03:02;;;;;;;0.30;0.20;;;;;;;6.62;100.00;99959.47;5041850;28;20957;-51
2022/04/12 01:05:29;;;;;;;0.30;0.10;;;;;;;6.67;100.00;99959.38;5050390;28;20592;-51
2022/04/12 01:07:56;;;;;;;0.40;0.30;;;;;;;6.41;100.00;99955.44;5043998;28;20535;-51
2022/04/12 01:10:23;;;;;;;0.30;0.20;;;;;;;6.54;100.00;99959.59;5035580;22;20492;-87
2022/04/12 01:12:52;;;;;;;0.30;0.20;;;;;;;6.52;100.00;99947.34;5010571;28;20475;-86
2022/04/12 01:15:22;;;;;;;0.30;0.17;;;;;;;6.35;100.00;99949.41;5013423;28;21195;-87
2022/04/12 01:17:49;;;;;;;0.30;0.20;;;;;;;6.38;100.00;99939.66;5007380;28;20461;-87
2022/04/12 01:20:19;;;;;;;0.30;0.20;;;;;;;6.38;100.00;99949.34;5013071;28;20457;-87
2022/04/12 01:22:55;;;;;;;0.30;0.10;;;;;;;6.43;100.00;99951.00;5001371;28;20515;-86
2022/04/12 01:25:22;;;;;;;0.30;0.20;;;;;;;6.16;100.00;99938.25;5016840;28;20522;-86
2022/04/12 01:27:49;;;;;;;0.30;0.20;;;;;;;6.13;100.00;99940.94;5011525;28;20498;-86
2022/04/12 01:30:16;;;;;;;0.30;0.20;;;;;;;6.13;100.00;99927.75;5009187;28;20492;-86
2022/04/12 01:32:42;;;;;;;0.30;0.20;;;;;;;5.91;100.00;99938.69;5032744;28;20933;-86
2022/04/12 01:35:10;;;;;;;0.30;0.20;;;;;;;5.96;100.00;99928.03;5023426;28;21009;-86
2022/04/12 01:37:36;;;;;;;0.30;0.30;;;;;;;5.99;100.00;99927.97;5002699;28;20942;-86
2022/04/12 01:40:04;;;;;;;0.50;0.50;;;;;;;5.81;100.00;99936.16;5008800;28;20468;-86
2022/04/12 01:42:31;;;;;;;0.30;0.20;;;;;;;5.89;100.00;99931.63;5009315;28;20509;-86
2022/04/12 01:44:58;;;;;;;0.30;0.20;;;;;;;5.98;100.00;99936.78;5018186;28;20481;-87
2022/04/12 01:47:24;;;;;;;0.30;0.17;;;;;;;5.87;100.00;99914.94;5026368;28;20464;-86
2022/04/12 01:49:51;;;;;;;0.30;0.20;;;;;;;5.74;100.00;99935.38;5014410;28;20456;-86
2022/04/12 01:52:18;;;;;;;0.50;0.40;;;;;;;5.94;100.00;99935.13;5022572;28;20883;-86
2022/04/12 01:54:44;;;;;;;0.60;0.60;;;;;;;5.92;100.00;99934.28;5003817;28;20477;-86
2022/04/12 01:57:11;;;;;;;0.30;0.20;;;;;;;5.89;100.00;99934.25;5007899;28;20463;-87
2022/04/12 01:59:38;;;;;;;0.30;0.30;;;;;;;5.86;100.00;99931.66;5017193;28;20460;-87
2022/04/12 02:02:04;;;;;;;1.03;0.60;;;;;;;5.70;100.00;99936.31;5007492;28;20447;-86
2022/04/12 02:04:31;;;;;;;0.30;0.20;;;;;;;5.77;100.00;99942.38;5017985;28;20476;-87
2022/04/12 02:06:58;;;;;;;0.30;0.10;;;;;;;5.39;100.00;99925.34;5013797;28;20460;-86
2022/04/12 02:09:24;;;;;;;0.30;0.30;;;;;;;5.67;100.00;99933.72;5018550;28;20472;-87
2022/04/12 02:11:53;;;;;;;0.30;0.20;;;;;;;5.45;100.00;99914.69;5024178;28;20541;-84
2022/04/12 02:14:19;;;;;;;0.53;0.53;;;;;;;5.43;100.00;99915.59;5004168;28;20894;-85
2022/04/12 02:16:46;;;;;;;0.30;0.20;;;;;;;5.50;100.00;99939.25;5009423;28;20456;-85
2022/04/12 02:19:13;;;;;;;0.30;0.20;;;;;;;5.50;100.00;99930.47;5022686;28;20883;-85
2022/04/12 02:21:39;;;;;;;1.33;1.07;;;;;;;5.61;100.00;99933.78;5009903;28;20505;-85
2022/04/12 02:24:06;;;;;;;0.30;0.20;;;;;;;5.53;100.00;99933.91;5010992;28;20965;-85
2022/04/12 02:26:34;;;;;;;0.30;0.20;;;;;;;5.59;100.00;99932.94;5011665;28;20478;-84
2022/04/12 02:29:00;;;;;;;0.30;0.20;;;;;;;5.62;100.00;99939.06;5011260;28;20460;-85
2022/04/12 02:31:33;;;;;;;0.30;0.20;;;;;;;5.73;100.00;99940.66;4999428;28;20495;-85
2022/04/12 02:34:00;;;;;;;0.30;0.20;;;;;;;5.62;100.00;99938.19;5031079;28;20457;-85
2022/04/12 02:36:27;;;;;;;0.30;0.20;;;;;;;5.56;100.00;99939.16;5008116;28;20467;-85
2022/04/12 02:38:53;;;;;;;0.30;0.20;;;;;;;5.49;100.00;99932.22;5009029;28;20479;-84
2022/04/12 02:41:20;;;;;;;0.30;0.30;;;;;;;5.54;100.00;99946.22;5017704;28;20461;-85
2022/04/12 02:43:46;;;;;;;0.30;0.20;;;;;;;5.73;100.00;99935.38;5011258;28;20456;-84
2022/04/12 02:46:14;;;;;;;0.30;0.10;;;;;;;5.56;100.00;99933.00;5008851;28;20534;-85
2022/04/12 02:48:41;;;;;;;0.30;0.20;;;;;;;5.44;100.00;99947.22;5011609;28;20463;-84
2022/04/12 02:51:07;;;;;;;0.50;0.50;;;;;;;5.41;100.00;99949.03;5015904;28;20491;-85
2022/04/12 02:53:34;;;;;;;0.30;0.20;;;;;;;5.72;100.00;99934.50;5017607;28;20456;-85
2022/04/12 02:56:01;;;;;;;0.30;0.20;;;;;;;5.59;100.00;99947.00;5011208;28;20476;-84
2022/04/12 02:58:28;;;;;;;0.30;0.17;;;;;;;5.38;100.00;99934.13;5012674;28;20456;-84
2022/04/12 03:00:54;;;;;;;0.30;0.20;;;;;;;5.04;100.00;99923.13;5005413;28;20448;-85
2022/04/12 03:03:21;;;;;;;0.60;0.60;;;;;;;5.12;100.00;99912.53;5006019;28;20457;-84
2022/04/12 03:05:47;;;;;;;0.30;0.20;;;;;;;5.22;100.00;99928.19;5012536;28;20472;-86
2022/04/12 03:08:14;;;;;;;0.30;0.20;;;;;;;5.04;100.00;99928.41;5009142;28;20460;-86
2022/04/12 03:10:41;;;;;;;0.30;0.27;;;;;;;5.19;100.00;99925.56;5033903;28;20538;-84
2022/04/12 03:13:07;;;;;;;0.30;0.10;;;;;;;5.18;100.00;99921.19;5010061;28;20511;-84
2022/04/12 03:15:34;;;;;;;0.30;0.20;;;;;;;5.13;100.00;99909.00;5010573;28;20535;-84
2022/04/12 03:18:01;;;;;;;0.30;0.20;;;;;;;5.24;100.00;99921.13;5004643;28;20506;-84
2022/04/12 03:20:27;;;;;;;0.30;0.20;;;;;;;5.11;100.00;99921.31;5022196;28;20837;-84
2022/04/12 03:22:54;;;;;;;0.30;0.20;;;;;;;4.76;100.00;99922.59;5008962;28;20456;-83
2022/04/12 03:25:20;;;;;;;0.40;0.30;;;;;;;4.94;100.00;99903.97;5004868;28;20485;-84
2022/04/12 03:27:48;;;;;;;0.30;0.10;;;;;;;4.96;100.00;99922.38;5003940;28;20453;-83
2022/04/12 03:30:15;;;;;;;0.30;0.20;;;;;;;5.10;100.00;99890.59;5009063;28;20507;-84
2022/04/12 03:32:42;;;;;;;0.33;0.33;;;;;;;5.12;100.00;99915.16;5014741;28;20460;-85
2022/04/12 03:35:08;;;;;;;0.30;0.30;;;;;;;5.17;100.00;99915.94;5003136;28;20523;-83
2022/04/12 03:37:36;;;;;;;0.30;0.10;;;;;;;5.05;100.00;99919.59;5001348;28;20460;-83
2022/04/12 03:40:03;;;;;;;0.20;0.20;;;;;;;5.15;100.00;99912.47;4998874;28;21027;-84
2022/04/12 03:42:30;;;;;;;0.30;0.20;;;;;;;5.28;100.00;99927.22;5006143;28;20463;-84
2022/04/12 03:44:56;;;;;;;0.30;0.20;;;;;;;5.37;100.00;99923.63;5002742;28;20480;-84
2022/04/12 03:47:23;;;;;;;0.30;0.10;;;;;;;5.35;100.00;99927.16;5001670;28;20883;-85
2022/04/12 03:49:50;;;;;;;0.30;0.20;;;;;;;5.28;100.00;99907.03;5000504;28;20453;-84
2022/04/12 03:52:16;;;;;;;0.30;0.10;;;;;;;5.28;100.00;99919.31;5002137;28;20495;-84
2022/04/12 03:54:43;;;;;;;0.33;0.30;;;;;;;5.22;100.00;99908.88;5000638;28;20546;-83
2022/04/12 03:57:10;;;;;;;0.30;0.20;;;;;;;5.37;100.00;99916.56;5008142;28;20455;-85
2022/04/12 03:59:37;;;;;;;2.30;2.27;;;;;;;5.26;100.00;99929.03;5012891;28;20456;-84
2022/04/12 04:02:04;;;;;;;0.30;0.20;;;;;;;5.43;100.00;99929.66;4999658;28;20449;-85
2022/04/12 04:04:31;;;;;;;0.30;0.20;;;;;;;5.35;100.00;99927.16;5003733;28;20542;-84
2022/04/12 04:07:03;;;;;;;0.30;0.10;;;;;;;5.36;100.00;99925.38;5012498;28;20531;-85
2022/04/12 04:09:29;;;;;;;0.30;0.20;;;;;;;5.42;100.00;99925.28;5003527;28;20472;-84
2022/04/12 04:11:56;;;;;;;0.30;0.20;;;;;;;5.27;100.00;99928.13;5002639;28;20541;-84
2022/04/12 04:14:22;;;;;;;0.30;0.20;;;;;;;5.25;100.00;99925.50;4997990;28;20484;-84
2022/04/12 04:16:49;;;;;;;0.40;0.40;;;;;;;5.18;100.00;99917.69;5015144;28;20967;-84
2022/04/12 04:19:16;;;;;;;0.30;0.10;;;;;;;5.35;100.00;99928.91;5006419;28;20507;-84
2022/04/12 04:21:42;;;;;;;0.30;0.30;;;;;;;5.44;100.00;99927.91;5002910;28;20452;-83
2022/04/12 04:24:09;;;;;;;0.30;0.20;;;;;;;5.37;100.00;99928.88;5011389;28;20513;-85
2022/04/12 04:26:36;;;;;;;0.30;0.20;;;;;;;5.35;100.00;99928.91;5005391;28;20468;-85
2022/04/12 04:29:02;;;;;;;0.30;0.20;;;;;;;5.41;100.00;99927.94;5005482;28;20518;-84
2022/04/12 04:31:29;;;;;;;0.30;0.20;;;;;;;5.53;100.00;99933.91;5013734;28;20559;-85
2022/04/12 04:33:56;;;;;;;0.63;0.63;;;;;;;5.33;100.00;99939.44;5011633;28;20881;-86
2022/04/12 04:36:23;;;;;;;0.30;0.20;;;;;;;5.33;100.00;99930.66;5000664;28;20467;-86
2022/04/12 04:38:50;;;;;;;0.83;0.83;;;;;;;5.38;100.00;99933.25;5000930;28;20969;-87
2022/04/12 04:41:17;;;;;;;0.30;0.20;;;;;;;5.38;100.00;99928.00;5022102;28;20445;-86
2022/04/12 04:43:46;;;;;;;0.20;0.10;;;;;;;5.38;100.00;99941.16;5000725;28;20453;-86
2022/04/12 04:46:13;;;;;;;0.30;0.10;;;;;;;5.22;100.00;99937.88;5009308;28;20503;-86
2022/04/12 04:48:41;;;;;;;0.30;0.20;;;;;;;5.25;100.00;99936.06;5009077;28;20540;-86
2022/04/12 04:51:09;;;;;;;0.30;0.10;;;;;;;5.34;100.00;99938.59;5028584;28;20487;-86
2022/04/12 04:53:37;;;;;;;0.33;0.30;;;;;;;5.31;100.00;99932.44;5005633;28;20449;-86
2022/04/12 04:56:07;;;;;;;0.30;0.30;;;;;;;5.26;100.00;99924.63;5022648;28;20519;-87
2022/04/12 04:58:34;;;;;;;0.20;0.10;;;;;;;5.11;100.00;99916.03;5004740;28;20452;-86
2022/04/12 05:01:21;;;;;;;0.40;0.37;;;;;;;5.29;100.00;99928.97;5009235;28;20886;-86
2022/04/12 05:03:50;;;;;;;0.30;0.20;;;;;;;5.38;100.00;99928.88;5002811;28;20544;-85
2022/04/12 05:06:18;;;;;;;0.30;0.20;;;;;;;5.30;100.00;99931.59;5001691;28;20559;-86
2022/04/12 05:08:45;;;;;;;0.47;0.47;;;;;;;5.31;100.00;99940.34;5013519;28;20467;-87
2022/04/12 05:11:12;;;;;;;0.30;0.20;;;;;;;5.33;100.00;99931.53;5000662;28;20493;-89
2022/04/12 05:13:39;;;;;;;0.30;0.10;;;;;;;5.33;100.00;99922.75;5003163;28;20511;-88
2022/04/12 05:16:06;;;;;;;0.30;0.20;;;;;;;5.41;100.00;99930.56;5012490;28;20476;-88
2022/04/12 05:18:33;;;;;;;0.20;0.20;;;;;;;5.57;100.00;99948.78;5018497;28;20480;-91
2022/04/12 05:21:00;;;;;;;0.30;0.20;;;;;;;5.52;100.00;99948.00;5028652;28;20462;-88
2022/04/12 05:23:27;;;;;;;1.80;0.93;;;;;;;5.59;100.00;99957.53;5018270;28;20465;-87
2022/04/12 05:25:54;;;;;;;0.30;0.20;;;;;;;5.64;100.00;99958.38;5012642;28;20491;-88
2022/04/12 05:28:21;;;;;;;0.20;0.10;;;;;;;5.92;100.00;99966.78;5000862;28;20460;-88
2022/04/12 05:30:48;;;;;;;0.30;0.10;;;;;;;5.88;100.00;99957.13;5012547;28;20501;-88
2022/04/12 05:33:15;;;;;;;0.40;0.30;;;;;;;5.89;100.00;99950.09;5003669;28;20866;-91
2022/04/12 05:35:42;;;;;;;0.30;0.10;;;;;;;6.24;100.00;99953.09;5007134;28;20480;-89
2022/04/12 05:38:08;;;;;;;1.47;1.47;;;;;;;6.43;100.00;99948.34;5005399;28;20833;-84
2022/04/12 05:40:35;;;;;;;0.30;0.20;;;;;;;6.98;99.47;99957.91;5008584;28;20543;-84
2022/04/12 05:43:02;;;;;;;0.30;0.20;;;;;;;7.43;96.88;99948.19;5004601;28;20456;-86
2022/04/12 05:45:29;;;;;;;0.30;0.20;;;;;;;7.72;94.14;99944.91;5004235;28;20476;-84
2022/04/12 05:47:56;;;;;;;0.30;0.10;;;;;;;8.19;92.01;99953.50;5009461;28;20455;-84
2022/04/12 05:50:27;;;;;;;0.40;0.40;;;;;;;8.40;89.88;99948.63;5019045;28;20492;-84
2022/04/12 05:52:55;;;;;;;0.30;0.30;;;;;;;8.81;88.88;99952.84;5022611;28;20483;-84
2022/04/12 05:55:23;;;;;;;1.23;1.17;;;;;;;8.93;88.02;99959.59;5022220;28;20477;-84
2022/04/12 05:57:56;;;;;;;0.30;0.20;;;;;;;8.73;87.97;99953.03;5023270;28;20431;-84
2022/04/12 06:00:25;;;;;;;1.13;0.93;;;;;;;8.48;89.05;99952.78;5030630;28;20448;-85
2022/04/12 06:02:53;;;;;;;0.60;0.60;;;;;;;8.27;89.45;99919.78;5027564;28;20498;-84
2022/04/12 06:05:21;;;;;;;0.30;0.17;;;;;;;8.45;88.39;99949.38;5009456;28;20476;-85
2022/04/12 06:07:48;;;;;;;0.40;0.30;;;;;;;8.43;89.90;99957.34;5008425;28;20507;-85
2022/04/12 06:10:17;;;;;;;0.30;0.20;;;;;;;8.39;89.57;99955.69;5013143;28;20499;-84
2022/04/12 06:12:45;;;;;;;0.30;0.20;;;;;;;8.27;90.25;99963.91;5028915;28;20559;-83
2022/04/12 06:15:12;;;;;;;0.80;0.80;;;;;;;8.18;91.24;99956.19;5025285;28;21019;-84
2022/04/12 06:17:39;;;;;;;0.30;0.30;;;;;;;8.33;90.43;99959.31;5005614;28;20453;-84
2022/04/12 06:20:07;;;;;;;0.30;0.20;;;;;;;8.58;90.21;99958.75;5023205;28;20451;-84
2022/04/12 06:22:35;;;;;;;0.80;0.80;;;;;;;8.90;89.38;99969.34;5005294;28;20475;-83
2022/04/12 06:25:05;;;;;;;0.30;0.13;;;;;;;8.78;89.13;99971.50;5012463;28;20484;-84
2022/04/12 06:27:34;;;;;;;0.77;0.63;;;;;;;8.93;88.49;99965.78;5007080;28;20453;-84
2022/04/12 06:30:06;;;;;;;1.57;1.17;;;;;;;9.20;87.93;99969.44;5018539;28;20453;-84
2022/04/12 06:32:34;;;;;;;0.30;0.20;;;;;;;9.09;88.05;99961.78;5006106;28;20511;-84
2022/04/12 06:35:01;;;;;;;0.30;0.30;;;;;;;9.28;87.67;99974.50;5032793;28;20533;-84
2022/04/12 06:37:28;;;;;;;0.30;0.20;;;;;;;9.39;87.49;99972.44;5023086;28;20451;-84
2022/04/12 06:40:00;;;;;;;0.30;0.20;;;;;;;9.58;87.86;99976.28;5021289;28;20530;-84
2022/04/12 06:42:26;;;;;;;0.40;0.20;;;;;;;9.58;87.42;99975.41;5001404;28;20511;-83
2022/04/12 06:44:53;;;;;;;0.30;0.20;;;;;;;9.67;87.05;99965.41;5000398;28;20531;-83
2022/04/12 06:47:20;;;;;;;5.90;1.47;;;;;;;9.87;87.31;99983.38;5018585;28;20519;-83
2022/04/12 06:49:48;;;;;;;0.30;0.20;;;;;;;9.76;86.47;99981.06;5004817;28;20964;-83
2022/04/12 06:52:17;;;;;;;0.30;0.20;;;;;;;9.82;85.11;99969.38;5001278;28;20907;-83
2022/04/12 06:54:44;;;;;;;0.30;0.20;;;;;;;9.78;84.87;99959.75;5002291;28;20527;-82
2022/04/12 06:57:11;;;;;;;0.30;0.20;;;;;;;9.69;84.42;99963.56;5020770;28;20486;-83
2022/04/12 06:59:38;;;;;;;0.30;0.20;;;;;;;9.75;84.58;99959.88;5022658;28;20850;-83
2022/04/12 07:02:05;;;;;;;0.77;0.77;;;;;;;9.83;83.65;99949.00;5023703;28;20453;-83
2022/04/12 07:04:33;;;;;;;0.30;0.20;;;;;;;10.15;84.07;99966.59;5001173;28;20475;-82
2022/04/12 07:07:00;;;;;;;0.40;0.33;;;;;;;10.19;82.68;99971.75;5005088;28;20455;-83
2022/04/12 07:09:28;;;;;;;0.43;0.43;;;;;;;10.47;82.98;99978.84;5009972;28;20896;-81
2022/04/12 07:12:00;;;;;;;0.30;0.20;;;;;;;10.28;83.17;99982.13;5002787;28;21003;-83
2022/04/12 07:14:29;;;;;;;1.13;1.13;;;;;;;10.55;83.21;99982.09;5022528;28;20477;-83
2022/04/12 07:16:56;;;;;;;0.40;0.40;;;;;;;10.57;83.36;99982.94;5006759;28;20936;-83
2022/04/12 07:19:23;;;;;;;0.60;0.57;;;;;;;10.87;81.87;99986.34;5000491;28;20510;-83
2022/04/12 07:21:50;;;;;;;0.40;0.30;;;;;;;10.60;82.60;99956.25;5017823;28;20811;-83
2022/04/12 07:24:17;;;;;;;0.60;0.57;;;;;;;10.91;80.96;99975.53;5018766;28;20484;-82
2022/04/12 07:26:43;;;;;;;0.30;0.20;;;;;;;11.16;80.55;99964.91;5011082;28;20456;-83
2022/04/12 07:29:10;;;;;;;1.53;1.53;;;;;;;11.04;80.43;99959.16;5018362;28;20458;-82
2022/04/12 07:31:37;;;;;;;0.30;0.20;;;;;;;11.16;79.36;99975.53;5021580;28;20537;-82
2022/04/12 07:34:03;;;;;;;0.60;0.60;;;;;;;11.29;79.61;99973.31;5004269;28;20532;-82
2022/04/12 07:36:30;;;;;;;0.30;0.20;;;;;;;11.43;79.51;99976.31;5001000;28;20503;-82
2022/04/12 07:38:57;;;;;;;0.30;0.20;;;;;;;11.19;78.86;99958.59;5013944;28;20463;-83
2022/04/12 07:41:23;;;;;;;0.30;0.20;;;;;;;11.49;78.84;99977.88;5022184;28;20458;-84
2022/04/12 07:43:52;;;;;;;0.30;0.20;;;;;;;12.02;76.21;99973.19;5037497;28;20502;-82
2022/04/12 07:46:19;;;;;;;0.30;0.20;;;;;;;12.40;73.41;99976.97;5037278;28;20498;-83
2022/04/12 07:48:48;;;;;;;0.40;0.30;;;;;;;12.52;71.20;99967.59;5012364;28;20488;-82
2022/04/12 07:51:16;;;;;;;0.40;0.30;;;;;;;12.37;68.23;99971.78;5022036;28;20464;-81
2022/04/12 07:53:42;;;;;;;0.30;0.20;;;;;;;12.51;67.31;99973.88;5007346;28;20558;-82
2022/04/12 07:56:09;;;;;;;0.30;0.20;;;;;;;12.64;67.48;99964.44;5026273;28;20479;-84
2022/04/12 07:58:36;;;;;;;0.30;0.20;;;;;;;12.94;68.30;99964.03;5007097;28;20456;-86
2022/04/12 08:01:03;;;;;;;0.30;0.20;;;;;;;12.65;67.95;99962.63;5008462;28;20452;-83
2022/04/12 08:03:30;;;;;;;0.30;0.20;;;;;;;12.71;67.51;99957.03;5004521;28;20451;-83
2022/04/12 08:05:57;;;;;;;0.50;0.50;;;;;;;12.88;68.13;99965.16;5019829;28;20931;-83
2022/04/12 08:08:23;;;;;;;1.50;0.90;;;;;;;12.78;67.08;99963.84;5018568;28;20455;-83
2022/04/12 08:10:50;;;;;;;0.70;0.70;;;;;;;12.89;66.22;99971.38;5022422;28;20465;-83
2022/04/12 08:13:17;;;;;;;0.30;0.20;;;;;;;13.09;66.63;99976.72;5018999;28;21097;-83
2022/04/12 08:15:44;;;;;;;19.20;1.90;;;;;;;13.01;65.33;99973.50;5014092;28;20837;-83
2022/04/12 08:18:12;;;;;;;0.70;0.70;;;;;;;12.88;66.08;99965.16;5023304;28;20510;-83
2022/04/12 08:20:38;;;;;;;0.47;0.40;;;;;;;12.85;67.32;99957.28;5024102;28;20513;-83
2022/04/12 08:23:05;;;;;;;0.30;0.30;;;;;;;12.87;68.27;99917.22;5021969;28;20495;-83
2022/04/12 08:25:32;;;;;;;0.40;0.30;;;;;;;13.24;68.77;99936.03;5015695;28;20543;-83
2022/04/12 08:27:59;;;;;;;0.60;0.60;;;;;;;13.43;68.95;99928.06;5039625;28;20452;-83
2022/04/12 08:30:26;;;;;;;0.40;0.30;;;;;;;13.52;67.29;99934.75;5040145;28;20490;-83
2022/04/12 08:32:53;;;;;;;2.20;2.10;;;;;;;13.37;65.92;99930.13;5038664;28;20487;-83
2022/04/12 08:35:20;;;;;;;0.30;0.20;;;;;;;13.36;65.95;99947.09;5021284;28;20522;-83
2022/04/12 08:37:46;;;;;;;0.40;0.30;;;;;;;13.66;66.61;99944.81;5018880;28;20882;-82
2022/04/12 08:40:14;;;;;;;1.93;1.73;;;;;;;13.82;66.42;99941.34;5037297;28;20863;-83
2022/04/12 08:42:41;;;;;;;0.30;0.20;;;;;;;13.73;65.85;99941.78;5028006;28;20456;-83
2022/04/12 08:45:08;;;;;;;0.73;0.73;;;;;;;13.92;65.03;99949.78;5037708;28;20459;-83
2022/04/12 08:47:35;;;;;;;0.30;0.20;;;;;;;13.71;64.55;99946.34;5038956;28;20956;-82
2022/04/12 08:50:05;;;;;;;0.30;0.20;;;;;;;13.75;66.04;99942.56;5021448;28;20444;-83
2022/04/12 08:52:32;;;;;;;0.53;0.53;;;;;;;13.91;66.05;99956.06;5021114;28;20537;-83
2022/04/12 08:54:59;;;;;;;0.40;0.30;;;;;;;13.89;65.40;99949.94;5014892;28;20468;-83
2022/04/12 08:57:25;;;;;;;0.40;0.40;;;;;;;13.80;65.92;99950.38;5036116;28;20964;-83
2022/04/12 08:59:52;;;;;;;0.30;0.20;;;;;;;13.85;65.77;99946.56;5019545;28;20460;-83
2022/04/12 09:02:19;;;;;;;0.30;0.20;;;;;;;14.05;65.47;99944.72;5032183;28;20479;-83
2022/04/12 09:04:46;;;;;;;0.30;0.20;;;;;;;13.93;64.46;99940.81;5018622;28;20475;-83
2022/04/12 09:07:13;;;;;;;0.30;0.20;;;;;;;14.02;63.70;99955.56;5010244;28;20448;-83
2022/04/12 09:09:42;;;;;;;0.30;0.20;;;;;;;14.43;63.92;99937.50;5034209;28;20913;-83
2022/04/12 09:12:12;;;;;;;0.30;0.20;;;;;;;14.47;64.50;99939.09;5017542;28;20483;-83
2022/04/12 09:14:47;;;;;;;0.30;0.20;;;;;;;14.59;64.28;99941.16;5017052;28;20484;-83
2022/04/12 09:17:19;;;;;;;0.50;0.50;;;;;;;14.64;64.94;99933.75;5016952;28;20502;-83
2022/04/12 09:19:49;;;;;;;0.30;0.20;;;;;;;14.82;63.30;99932.81;5036114;28;20952;-82
2022/04/12 09:22:23;;;;;;;1.93;0.43;;;;;;;14.76;61.39;99922.44;5036934;28;20444;-83
2022/04/12 09:24:52;;;;;;;1.27;1.17;;;;;;;14.52;61.08;99919.19;5017762;28;20992;-83
2022/04/12 09:27:21;;;;;;;0.40;0.40;;;;;;;14.91;61.01;99926.09;5011492;28;20444;-83
2022/04/12 09:29:53;;;;;;;0.33;0.27;;;;;;;15.35;60.81;99921.09;5036888;28;20466;-82
2022/04/12 09:32:28;;;;;;;0.30;0.20;;;;;;;15.56;60.71;99926.22;5036929;28;20492;-82
2022/04/12 09:34:56;;;;;;;0.70;0.70;;;;;;;15.37;60.83;99926.38;5012659;28;20475;-82
2022/04/12 09:37:27;;;;;;;3.90;0.53;;;;;;;15.18;61.42;99915.75;5003598;28;20953;-82
2022/04/12 09:39:59;;;;;;;0.40;0.33;;;;;;;15.43;62.04;99907.28;5036284;28;20447;-83
2022/04/12 09:42:48;;;;;;;0.50;0.50;;;;;;;15.61;61.84;99905.41;5022302;28;20461;-82
2022/04/12 09:45:22;;;;;;;1.07;1.07;;;;;;;15.76;62.15;99903.69;5011445;28;20523;-83
2022/04/12 09:48:02;;;;;;;0.47;0.47;;;;;;;15.76;58.39;99888.50;5040093;28;20448;-82
2022/04/12 09:50:51;;;;;;;0.40;0.20;;;;;;;16.26;59.15;99892.75;5040746;28;20542;-82
2022/04/12 09:53:17;;;;;;;0.40;0.20;;;;;;;16.19;59.77;99891.41;5039247;28;20526;-82
2022/04/12 09:55:52;;;;;;;0.50;0.50;;;;;;;16.09;59.61;99883.03;5010526;28;20471;-82
2022/04/12 09:58:22;;;;;;;0.37;0.20;;;;;;;16.24;60.27;99883.94;5024429;28;20894;-82
2022/04/12 10:00:49;;;;;;;0.30;0.20;;;;;;;16.02;57.90;99878.09;5024765;28;20505;-82
2022/04/12 10:03:18;;;;;;;1.90;1.80;;;;;;;16.21;60.19;99885.00;5027967;28;20447;-83
2022/04/12 10:05:45;;;;;;;0.40;0.40;;;;;;;16.20;58.43;99887.78;5024466;28;20890;-83
2022/04/12 10:08:16;;;;;;;3.17;2.30;;;;;;;16.26;57.42;99861.44;5023674;28;20490;-82
2022/04/12 10:10:44;;;;;;;0.30;0.20;;;;;;;16.63;56.56;99872.69;5024222;28;20792;-82
2022/04/12 10:13:14;;;;;;;0.30;0.20;;;;;;;16.96;57.32;99864.41;5029278;28;20917;-82
2022/04/12 10:15:42;;;;;;;0.30;0.20;;;;;;;16.62;57.21;99864.72;5032122;28;20459;-84
2022/04/12 10:18:09;;;;;;;1.70;1.17;;;;;;;16.86;58.62;99863.28;5029128;28;20475;-83
2022/04/12 10:20:36;;;;;;;0.40;0.20;;;;;;;16.85;57.49;99850.78;5023458;28;21018;-83
2022/04/12 10:23:04;;;;;;;0.30;0.20;;;;;;;17.05;56.20;99845.06;5009301;28;20482;-85
2022/04/12 10:25:31;;;;;;;0.30;0.20;;;;;;;17.25;55.30;99848.28;5008841;28;20507;-82
2022/04/12 10:27:59;;;;;;;0.90;0.83;;;;;;;17.35;55.94;99841.38;5016646;28;20485;-83
2022/04/12 10:30:28;;;;;;;0.30;0.20;;;;;;;17.25;58.02;99840.25;5029870;28;20515;-82
2022/04/12 10:33:08;;;;;;;0.40;0.37;;;;;;;17.02;56.44;99837.19;5027720;28;20497;-83
2022/04/12 10:35:41;;;;;;;0.40;0.40;;;;;;;17.06;56.41;99827.97;5020811;28;20489;-83
2022/04/12 10:38:13;;;;;;;0.40;0.20;;;;;;;17.35;56.40;99823.44;5042406;28;20459;-82
2022/04/12 10:40:56;;;;;;;0.40;0.20;;;;;;;17.72;55.39;99819.28;5029036;28;20447;-82
2022/04/12 10:43:36;;;;;;;0.40;0.30;;;;;;;17.38;54.00;99819.69;5026111;28;20512;-82
2022/04/12 10:46:08;;;;;;;0.47;0.47;;;;;;;17.84;56.00;99817.63;5033672;28;20472;-82
2022/04/12 10:48:35;;;;;;;2.20;1.17;;;;;;;17.45;55.82;99812.97;5027832;28;20514;-83
2022/04/12 10:51:04;;;;;;;0.40;0.20;;;;;;;17.77;55.01;99809.06;5028562;28;20444;-82
2022/04/12 10:53:39;;;;;;;1.20;1.10;;;;;;;18.02;55.74;99810.13;5024733;28;20496;-82
2022/04/12 10:56:09;;;;;;;0.80;0.70;;;;;;;17.68;56.04;99809.69;5015926;28;20459;-82
2022/04/12 10:58:37;;;;;;;0.40;0.30;;;;;;;17.84;54.94;99806.00;5026745;28;20529;-82
2022/04/12 11:01:08;;;;;;;0.40;0.40;;;;;;;17.82;54.84;99803.41;5004492;28;20444;-82
2022/04/12 11:03:41;;;;;;;1.50;1.40;;;;;;;18.01;54.49;99801.22;5026548;28;20443;-83
2022/04/12 11:06:34;;;;;;;0.40;0.30;;;;;;;18.18;54.64;99794.69;5023122;28;20463;-82
2022/04/12 11:09:00;;;;;;;0.77;0.77;;;;;;;18.61;53.15;99794.41;5041192;28;20467;-82
2022/04/12 11:11:36;;;;;;;0.60;0.50;;;;;;;18.70;52.78;99795.66;5014200;28;20452;-83
2022/04/12 11:14:32;;;;;;;0.40;0.30;;;;;;;18.95;52.78;99792.94;5028958;28;20605;-82
2022/04/12 11:17:09;;;;;;;1.37;1.27;;;;;;;18.83;52.45;99797.38;5044681;28;20507;-83
2022/04/12 11:19:42;;;;;;;0.40;0.20;;;;;;;19.10;53.36;99785.59;5035610;28;20449;-82
2022/04/12 11:22:17;;;;;;;0.40;0.30;;;;;;;19.51;50.59;99782.59;5040744;22;20452;-56
2022/04/12 11:25:13;;;;;;;1.70;1.03;;;;;;;19.47;49.62;99783.81;5049913;28;20436;-55
2022/04/12 11:27:40;;;;;;;0.40;0.30;;;;;;;19.83;48.72;99778.38;5046435;28;20439;-55
2022/04/12 11:30:12;;;;;;;0.40;0.30;;;;;;;19.65;50.03;99774.38;5045515;28;20900;-55
2022/04/12 11:32:40;;;;;;;0.40;0.23;;;;;;;19.79;50.78;99776.91;5043141;28;20494;-55
2022/04/12 11:35:09;;;;;;;0.50;0.40;;;;;;;19.73;51.51;99774.66;5044228;28;20482;-56
2022/04/12 11:37:40;;;;;;;0.40;0.20;;;;;;;19.30;51.47;99765.28;5034918;28;20446;-55
2022/04/12 11:40:07;;;;;;;0.70;0.70;;;;;;;19.73;49.99;99771.94;5025230;28;20491;-55
2022/04/12 11:42:34;;;;;;;0.50;0.40;;;;;;;19.46;46.61;99764.06;5017139;28;20453;-55